sensor_id;sensor_type;location;lat;lon;timestamp;temperature;humidity
39677;DHT22;27789;50.840;4.386;2023-02-14T00:01:16;8.90;99.90
39677;DHT22;27789;50.840;4.386;2023-02-14T00:03:42;8.90;99.90
39677;DHT22;27789;50.840;4.386;2023-02-14T00:06:08;8.90;99.90
39677;DHT22;27789;50.840;4.386;2023-02-14T00:08:34;8.80;99.90
39677;DHT22;27789;50.840;4.386;2023-02-14T00:11:01;8.80;99.90
39677;DHT22;27789;50.840;4.386;2023-02-14T00:13:26;8.80;99.90
39677;DHT22;27789;50.840;4.386;2023-02-14T00:15:53;8.70;99.90
39677;DHT22;27789;50.840;4.386;2023-02-14T00:18:18;8.70;99.90
39677;DHT22;27789;50.840;4.386;2023-02-14T00:20:44;8.60;99.90
39677;DHT22;27789;50.840;4.386;2023-02-14T00:23:09;8.60;99.90
39677;DHT22;27789;50.840;4.386;2023-02-14T00:25:34;8.50;99.90
39677;DHT22;27789;50.840;4.386;2023-02-14T00:28:00;8.50;99.90
39677;DHT22;27789;50.840;4.386;2023-02-14T00:30:26;8.50;99.90
39677;DHT22;27789;50.840;4.386;2023-02-14T00:32:51;8.40;99.90
39677;DHT22;27789;50.840;4.386;2023-02-14T00:35:17;8.40;99.90
39677;DHT22;27789;50.840;4.386;2023-02-14T00:37:44;8.30;99.90
39677;DHT22;27789;50.840;4.386;2023-02-14T00:40:09;8.40;99.90
39677;DHT22;27789;50.840;4.386;2023-02-14T00:42:35;8.30;99.90
39677;DHT22;27789;50.840;4.386;2023-02-14T00:45:00;8.30;99.90
39677;DHT22;27789;50.840;4.386;2023-02-14T00:47:26;8.30;99.90
39677;DHT22;27789;50.840;4.386;2023-02-14T00:49:52;8.20;99.90
39677;DHT22;27789;50.840;4.386;2023-02-14T00:52:18;8.20;99.90
39677;DHT22;27789;50.840;4.386;2023-02-14T00:54:43;8.20;99.90
39677;DHT22;27789;50.840;4.386;2023-02-14T00:57:09;8.20;99.90
39677;DHT22;27789;50.840;4.386;2023-02-14T00:59:34;8.20;99.90
39677;DHT22;27789;50.840;4.386;2023-02-14T01:01:59;8.10;99.90
39677;DHT22;27789;50.840;4.386;2023-02-14T01:04:25;8.10;99.90
39677;DHT22;27789;50.840;4.386;2023-02-14T01:06:50;8.10;99.90
39677;DHT22;27789;50.840;4.386;2023-02-14T01:09:16;8.10;99.90
39677;DHT22;27789;50.840;4.386;2023-02-14T01:11:41;8.10;99.90
39677;DHT22;27789;50.840;4.386;2023-02-14T01:14:07;8.10;99.90
39677;DHT22;27789;50.840;4.386;2023-02-14T01:16:32;8.10;99.90
39677;DHT22;27789;50.840;4.386;2023-02-14T01:18:58;8.10;99.90
39677;DHT22;27789;50.840;4.386;2023-02-14T01:21:26;8.10;99.90
39677;DHT22;27789;50.840;4.386;2023-02-14T01:23:53;8.00;99.90
39677;DHT22;27789;50.840;4.386;2023-02-14T01:26:20;8.00;99.90
39677;DHT22;27789;50.840;4.386;2023-02-14T01:28:46;8.00;99.90
39677;DHT22;27789;50.840;4.386;2023-02-14T01:31:15;7.90;99.90
39677;DHT22;27789;50.840;4.386;2023-02-14T01:33:41;7.90;99.90
39677;DHT22;27789;50.840;4.386;2023-02-14T01:36:13;7.80;99.90
39677;DHT22;27789;50.840;4.386;2023-02-14T01:38:39;7.80;99.90
39677;DHT22;27789;50.840;4.386;2023-02-14T01:41:04;7.80;99.90
39677;DHT22;27789;50.840;4.386;2023-02-14T01:43:30;7.80;99.90
39677;DHT22;27789;50.840;4.386;2023-02-14T01:45:55;7.80;99.90
39677;DHT22;27789;50.840;4.386;2023-02-14T01:48:21;7.80;99.90
39677;DHT22;27789;50.840;4.386;2023-02-14T01:50:47;7.80;99.90
39677;DHT22;27789;50.840;4.386;2023-02-14T01:53:15;7.70;99.90
39677;DHT22;27789;50.840;4.386;2023-02-14T01:55:45;7.70;99.90
39677;DHT22;27789;50.840;4.386;2023-02-14T01:58:17;7.70;99.90
39677;DHT22;27789;50.840;4.386;2023-02-14T02:00:44;7.60;99.90
39677;DHT22;27789;50.840;4.386;2023-02-14T02:03:21;7.60;99.90
39677;DHT22;27789;50.840;4.386;2023-02-14T02:05:47;7.60;99.90
39677;DHT22;27789;50.840;4.386;2023-02-14T02:08:13;7.60;99.90
39677;DHT22;27789;50.840;4.386;2023-02-14T02:10:39;7.60;99.90
39677;DHT22;27789;50.840;4.386;2023-02-14T02:13:05;7.50;99.90
39677;DHT22;27789;50.840;4.386;2023-02-14T02:15:34;7.50;99.90
39677;DHT22;27789;50.840;4.386;2023-02-14T02:18:10;7.50;99.90
39677;DHT22;27789;50.840;4.386;2023-02-14T02:36:13;7.40;99.90
39677;DHT22;27789;50.840;4.386;2023-02-14T02:43:50;7.40;99.90
39677;DHT22;27789;50.840;4.386;2023-02-14T02:46:20;7.30;99.90
39677;DHT22;27789;50.840;4.386;2023-02-14T02:51:36;7.30;99.90
39677;DHT22;27789;50.840;4.386;2023-02-14T02:54:19;7.30;99.90
39677;DHT22;27789;50.840;4.386;2023-02-14T02:56:50;7.30;99.90
39677;DHT22;27789;50.840;4.386;2023-02-14T02:59:22;7.20;99.90
39677;DHT22;27789;50.840;4.386;2023-02-14T03:02:10;7.30;99.90
39677;DHT22;27789;50.840;4.386;2023-02-14T03:04:35;7.20;99.90
39677;DHT22;27789;50.840;4.386;2023-02-14T03:07:12;7.30;99.90
39677;DHT22;27789;50.840;4.386;2023-02-14T03:09:49;7.20;99.90
39677;DHT22;27789;50.840;4.386;2023-02-14T03:12:22;7.20;99.90
39677;DHT22;27789;50.840;4.386;2023-02-14T03:17:35;7.20;99.90
39677;DHT22;27789;50.840;4.386;2023-02-14T03:22:47;7.20;99.90
39677;DHT22;27789;50.840;4.386;2023-02-14T03:27:46;7.20;99.90
39677;DHT22;27789;50.840;4.386;2023-02-14T03:30:17;7.20;99.90
39677;DHT22;27789;50.840;4.386;2023-02-14T03:32:49;7.10;99.90
39677;DHT22;27789;50.840;4.386;2023-02-14T03:37:54;7.10;99.90
39677;DHT22;27789;50.840;4.386;2023-02-14T03:40:22;7.10;99.90
39677;DHT22;27789;50.840;4.386;2023-02-14T03:42:50;7.10;99.90
39677;DHT22;27789;50.840;4.386;2023-02-14T03:45:19;7.20;99.90
39677;DHT22;27789;50.840;4.386;2023-02-14T03:47:46;7.20;99.90
39677;DHT22;27789;50.840;4.386;2023-02-14T03:50:18;7.10;99.90
39677;DHT22;27789;50.840;4.386;2023-02-14T03:52:45;7.20;99.90
39677;DHT22;27789;50.840;4.386;2023-02-14T03:55:10;7.20;99.90
39677;DHT22;27789;50.840;4.386;2023-02-14T04:00:14;7.10;99.90
39677;DHT22;27789;50.840;4.386;2023-02-14T04:02:44;7.10;99.90
39677;DHT22;27789;50.840;4.386;2023-02-14T04:05:11;7.10;99.90
39677;DHT22;27789;50.840;4.386;2023-02-14T04:07:49;7.00;99.90
39677;DHT22;27789;50.840;4.386;2023-02-14T04:10:15;7.00;99.90
39677;DHT22;27789;50.840;4.386;2023-02-14T04:12:41;7.00;99.90
39677;DHT22;27789;50.840;4.386;2023-02-14T04:15:07;7.00;99.90
39677;DHT22;27789;50.840;4.386;2023-02-14T04:17:33;6.90;99.90
39677;DHT22;27789;50.840;4.386;2023-02-14T04:20:09;6.90;99.90
39677;DHT22;27789;50.840;4.386;2023-02-14T04:22:35;7.00;99.90
39677;DHT22;27789;50.840;4.386;2023-02-14T04:25:00;7.00;99.90
39677;DHT22;27789;50.840;4.386;2023-02-14T04:27:26;6.90;99.90
39677;DHT22;27789;50.840;4.386;2023-02-14T04:29:51;6.90;99.90
39677;DHT22;27789;50.840;4.386;2023-02-14T04:32:20;6.90;99.90
39677;DHT22;27789;50.840;4.386;2023-02-14T04:34:46;6.90;99.90
39677;DHT22;27789;50.840;4.386;2023-02-14T04:37:12;6.90;99.90
39677;DHT22;27789;50.840;4.386;2023-02-14T04:39:37;7.00;99.90
39677;DHT22;27789;50.840;4.386;2023-02-14T04:42:03;6.90;99.90
39677;DHT22;27789;50.840;4.386;2023-02-14T04:44:29;7.00;99.90
39677;DHT22;27789;50.840;4.386;2023-02-14T04:46:55;6.90;99.90
39677;DHT22;27789;50.840;4.386;2023-02-14T04:49:20;6.90;99.90
39677;DHT22;27789;50.840;4.386;2023-02-14T04:51:46;6.90;99.90
39677;DHT22;27789;50.840;4.386;2023-02-14T04:54:12;6.90;99.90
39677;DHT22;27789;50.840;4.386;2023-02-14T04:56:37;6.90;99.90
39677;DHT22;27789;50.840;4.386;2023-02-14T04:59:03;6.90;99.90
39677;DHT22;27789;50.840;4.386;2023-02-14T05:01:28;6.90;99.90
39677;DHT22;27789;50.840;4.386;2023-02-14T05:03:54;6.80;99.90
39677;DHT22;27789;50.840;4.386;2023-02-14T05:06:19;6.80;99.90
39677;DHT22;27789;50.840;4.386;2023-02-14T05:08:45;6.70;99.90
39677;DHT22;27789;50.840;4.386;2023-02-14T05:11:10;6.70;99.90
39677;DHT22;27789;50.840;4.386;2023-02-14T05:13:36;6.70;99.90
39677;DHT22;27789;50.840;4.386;2023-02-14T05:16:01;6.70;99.90
39677;DHT22;27789;50.840;4.386;2023-02-14T05:18:26;6.70;99.90
39677;DHT22;27789;50.840;4.386;2023-02-14T05:20:52;6.70;99.90
39677;DHT22;27789;50.840;4.386;2023-02-14T05:23:18;6.70;99.90
39677;DHT22;27789;50.840;4.386;2023-02-14T05:25:46;6.70;99.90
39677;DHT22;27789;50.840;4.386;2023-02-14T05:28:11;6.70;99.90
39677;DHT22;27789;50.840;4.386;2023-02-14T05:30:37;6.70;99.90
39677;DHT22;27789;50.840;4.386;2023-02-14T05:33:02;6.70;99.90
39677;DHT22;27789;50.840;4.386;2023-02-14T05:35:28;6.70;99.90
39677;DHT22;27789;50.840;4.386;2023-02-14T05:37:53;6.70;99.90
39677;DHT22;27789;50.840;4.386;2023-02-14T05:40:19;6.70;99.90
39677;DHT22;27789;50.840;4.386;2023-02-14T05:42:44;6.70;99.90
39677;DHT22;27789;50.840;4.386;2023-02-14T05:45:10;6.70;99.90
39677;DHT22;27789;50.840;4.386;2023-02-14T05:47:36;6.70;99.90
39677;DHT22;27789;50.840;4.386;2023-02-14T05:50:01;6.70;99.90
39677;DHT22;27789;50.840;4.386;2023-02-14T05:52:27;6.70;99.90
39677;DHT22;27789;50.840;4.386;2023-02-14T05:54:53;6.70;99.90
39677;DHT22;27789;50.840;4.386;2023-02-14T05:57:18;6.70;99.90
39677;DHT22;27789;50.840;4.386;2023-02-14T05:59:44;6.60;99.90
39677;DHT22;27789;50.840;4.386;2023-02-14T06:02:09;6.70;99.90
39677;DHT22;27789;50.840;4.386;2023-02-14T06:04:35;6.70;99.90
39677;DHT22;27789;50.840;4.386;2023-02-14T06:07:00;6.70;99.90
39677;DHT22;27789;50.840;4.386;2023-02-14T06:09:26;6.70;99.90
39677;DHT22;27789;50.840;4.386;2023-02-14T06:11:51;6.70;99.90
39677;DHT22;27789;50.840;4.386;2023-02-14T06:14:16;6.70;99.90
39677;DHT22;27789;50.840;4.386;2023-02-14T06:16:42;6.70;99.90
39677;DHT22;27789;50.840;4.386;2023-02-14T06:19:07;6.70;99.90
39677;DHT22;27789;50.840;4.386;2023-02-14T06:21:33;6.70;99.90
39677;DHT22;27789;50.840;4.386;2023-02-14T06:23:59;6.70;99.90
39677;DHT22;27789;50.840;4.386;2023-02-14T06:26:24;6.60;99.90
39677;DHT22;27789;50.840;4.386;2023-02-14T06:28:53;6.60;99.90
39677;DHT22;27789;50.840;4.386;2023-02-14T06:31:18;6.60;99.90
39677;DHT22;27789;50.840;4.386;2023-02-14T06:33:44;6.60;99.90
39677;DHT22;27789;50.840;4.386;2023-02-14T06:36:09;6.60;99.90
39677;DHT22;27789;50.840;4.386;2023-02-14T06:38:35;6.60;99.90
39677;DHT22;27789;50.840;4.386;2023-02-14T06:41:04;6.60;99.90
39677;DHT22;27789;50.840;4.386;2023-02-14T06:43:30;6.60;99.90
39677;DHT22;27789;50.840;4.386;2023-02-14T06:45:56;6.60;99.90
39677;DHT22;27789;50.840;4.386;2023-02-14T06:48:21;6.60;99.90
39677;DHT22;27789;50.840;4.386;2023-02-14T06:50:47;6.50;99.90
39677;DHT22;27789;50.840;4.386;2023-02-14T06:53:12;6.50;99.90
39677;DHT22;27789;50.840;4.386;2023-02-14T06:55:38;6.50;99.90
39677;DHT22;27789;50.840;4.386;2023-02-14T06:58:04;6.50;99.90
39677;DHT22;27789;50.840;4.386;2023-02-14T07:00:29;6.50;99.90
39677;DHT22;27789;50.840;4.386;2023-02-14T07:02:55;6.50;99.90
39677;DHT22;27789;50.840;4.386;2023-02-14T07:05:20;6.50;99.90
39677;DHT22;27789;50.840;4.386;2023-02-14T07:07:46;6.50;99.90
39677;DHT22;27789;50.840;4.386;2023-02-14T07:10:12;6.50;99.90
39677;DHT22;27789;50.840;4.386;2023-02-14T07:12:38;6.50;99.90
39677;DHT22;27789;50.840;4.386;2023-02-14T07:15:05;6.50;99.90
39677;DHT22;27789;50.840;4.386;2023-02-14T07:17:30;6.50;99.90
39677;DHT22;27789;50.840;4.386;2023-02-14T07:19:56;6.50;99.90
39677;DHT22;27789;50.840;4.386;2023-02-14T07:22:21;6.50;99.90
39677;DHT22;27789;50.840;4.386;2023-02-14T07:24:47;6.50;99.90
39677;DHT22;27789;50.840;4.386;2023-02-14T07:27:12;6.50;99.90
39677;DHT22;27789;50.840;4.386;2023-02-14T07:29:38;6.50;99.90
39677;DHT22;27789;50.840;4.386;2023-02-14T07:32:03;6.50;99.90
39677;DHT22;27789;50.840;4.386;2023-02-14T07:34:29;6.50;99.90
39677;DHT22;27789;50.840;4.386;2023-02-14T07:36:54;6.50;99.90
39677;DHT22;27789;50.840;4.386;2023-02-14T07:39:20;6.60;99.90
39677;DHT22;27789;50.840;4.386;2023-02-14T07:41:45;6.60;99.90
39677;DHT22;27789;50.840;4.386;2023-02-14T07:44:10;6.50;99.90
39677;DHT22;27789;50.840;4.386;2023-02-14T07:46:36;6.60;99.90
39677;DHT22;27789;50.840;4.386;2023-02-14T07:49:02;6.60;99.90
39677;DHT22;27789;50.840;4.386;2023-02-14T07:51:27;6.70;99.90
39677;DHT22;27789;50.840;4.386;2023-02-14T07:53:52;6.70;99.90
39677;DHT22;27789;50.840;4.386;2023-02-14T07:56:18;6.80;99.90
39677;DHT22;27789;50.840;4.386;2023-02-14T07:58:44;6.80;99.90
39677;DHT22;27789;50.840;4.386;2023-02-14T08:01:10;6.80;99.90
39677;DHT22;27789;50.840;4.386;2023-02-14T08:03:36;6.90;99.90
39677;DHT22;27789;50.840;4.386;2023-02-14T08:06:02;6.90;99.90
39677;DHT22;27789;50.840;4.386;2023-02-14T08:08:29;7.00;99.90
39677;DHT22;27789;50.840;4.386;2023-02-14T08:10:55;7.00;99.90
39677;DHT22;27789;50.840;4.386;2023-02-14T08:13:21;7.10;99.90
39677;DHT22;27789;50.840;4.386;2023-02-14T08:15:46;7.10;99.90
39677;DHT22;27789;50.840;4.386;2023-02-14T08:18:23;7.20;99.90
39677;DHT22;27789;50.840;4.386;2023-02-14T08:20:48;7.30;99.90
39677;DHT22;27789;50.840;4.386;2023-02-14T08:23:14;7.30;99.90
39677;DHT22;27789;50.840;4.386;2023-02-14T08:25:40;7.40;99.90
39677;DHT22;27789;50.840;4.386;2023-02-14T08:28:06;7.50;99.90
39677;DHT22;27789;50.840;4.386;2023-02-14T08:30:32;7.60;99.90
39677;DHT22;27789;50.840;4.386;2023-02-14T08:32:57;7.60;99.90
39677;DHT22;27789;50.840;4.386;2023-02-14T08:35:23;7.80;99.90
39677;DHT22;27789;50.840;4.386;2023-02-14T08:37:48;7.90;99.90
39677;DHT22;27789;50.840;4.386;2023-02-14T08:40:14;8.00;99.90
39677;DHT22;27789;50.840;4.386;2023-02-14T08:42:39;8.10;99.90
39677;DHT22;27789;50.840;4.386;2023-02-14T08:45:05;8.20;99.90
39677;DHT22;27789;50.840;4.386;2023-02-14T08:47:33;8.20;99.90
39677;DHT22;27789;50.840;4.386;2023-02-14T08:50:06;8.30;99.90
39677;DHT22;27789;50.840;4.386;2023-02-14T08:52:31;8.40;99.90
39677;DHT22;27789;50.840;4.386;2023-02-14T08:54:57;8.50;99.90
39677;DHT22;27789;50.840;4.386;2023-02-14T08:57:23;8.60;99.90
39677;DHT22;27789;50.840;4.386;2023-02-14T08:59:48;8.60;99.90
39677;DHT22;27789;50.840;4.386;2023-02-14T09:02:14;8.70;99.90
39677;DHT22;27789;50.840;4.386;2023-02-14T09:04:43;8.80;99.90
39677;DHT22;27789;50.840;4.386;2023-02-14T09:07:10;8.90;99.90
39677;DHT22;27789;50.840;4.386;2023-02-14T09:09:36;9.00;99.90
39677;DHT22;27789;50.840;4.386;2023-02-14T09:12:02;9.00;99.90
39677;DHT22;27789;50.840;4.386;2023-02-14T09:14:28;9.10;99.90
39677;DHT22;27789;50.840;4.386;2023-02-14T09:16:57;9.20;99.90
39677;DHT22;27789;50.840;4.386;2023-02-14T09:19:25;9.30;99.90
39677;DHT22;27789;50.840;4.386;2023-02-14T09:21:52;9.30;99.90
39677;DHT22;27789;50.840;4.386;2023-02-14T09:24:17;9.50;99.90
39677;DHT22;27789;50.840;4.386;2023-02-14T09:26:42;9.50;99.90
39677;DHT22;27789;50.840;4.386;2023-02-14T09:29:08;9.50;99.90
39677;DHT22;27789;50.840;4.386;2023-02-14T09:31:36;9.70;99.90
39677;DHT22;27789;50.840;4.386;2023-02-14T09:34:02;9.80;99.90
39677;DHT22;27789;50.840;4.386;2023-02-14T09:36:38;9.90;99.90
39677;DHT22;27789;50.840;4.386;2023-02-14T09:39:14;10.10;99.90
39677;DHT22;27789;50.840;4.386;2023-02-14T09:44:27;10.10;99.90
39677;DHT22;27789;50.840;4.386;2023-02-14T09:46:53;10.10;99.90
39677;DHT22;27789;50.840;4.386;2023-02-14T09:49:28;10.20;99.90
39677;DHT22;27789;50.840;4.386;2023-02-14T09:51:56;10.40;99.90
39677;DHT22;27789;50.840;4.386;2023-02-14T09:54:26;10.50;99.90
39677;DHT22;27789;50.840;4.386;2023-02-14T09:59:22;10.80;99.90
39677;DHT22;27789;50.840;4.386;2023-02-14T10:01:49;11.10;99.90
39677;DHT22;27789;50.840;4.386;2023-02-14T10:11:54;13.70;99.90
39677;DHT22;27789;50.840;4.386;2023-02-14T10:14:23;14.00;99.90
39677;DHT22;27789;50.840;4.386;2023-02-14T10:19:22;14.40;99.90
39677;DHT22;27789;50.840;4.386;2023-02-14T10:21:56;14.50;99.90
39677;DHT22;27789;50.840;4.386;2023-02-14T10:24:32;14.80;99.90
39677;DHT22;27789;50.840;4.386;2023-02-14T10:27:43;14.90;99.90
39677;DHT22;27789;50.840;4.386;2023-02-14T10:29:48;14.70;99.90
39677;DHT22;27789;50.840;4.386;2023-02-14T10:32:14;14.70;99.90
39677;DHT22;27789;50.840;4.386;2023-02-14T10:34:45;14.60;99.90
39677;DHT22;27789;50.840;4.386;2023-02-14T10:49:50;18.90;97.40
39677;DHT22;27789;50.840;4.386;2023-02-14T10:54:57;19.50;96.40
39677;DHT22;27789;50.840;4.386;2023-02-14T10:57:27;19.90;95.90
39677;DHT22;27789;50.840;4.386;2023-02-14T10:59:55;20.00;95.80
39677;DHT22;27789;50.840;4.386;2023-02-14T11:02:28;20.30;95.40
39677;DHT22;27789;50.840;4.386;2023-02-14T11:04:54;20.10;95.60
39677;DHT22;27789;50.840;4.386;2023-02-14T11:07:20;20.00;95.30
39677;DHT22;27789;50.840;4.386;2023-02-14T11:09:46;20.50;95.30
39677;DHT22;27789;50.840;4.386;2023-02-14T11:12:11;20.80;94.70
39677;DHT22;27789;50.840;4.386;2023-02-14T11:15:07;21.00;94.50
39677;DHT22;27789;50.840;4.386;2023-02-14T11:17:34;21.30;94.20
39677;DHT22;27789;50.840;4.386;2023-02-14T11:20:04;21.70;93.80
39677;DHT22;27789;50.840;4.386;2023-02-14T11:22:44;22.00;93.40
39677;DHT22;27789;50.840;4.386;2023-02-14T11:27:47;22.20;93.10
39677;DHT22;27789;50.840;4.386;2023-02-14T11:30:25;22.10;92.80
39677;DHT22;27789;50.840;4.386;2023-02-14T11:32:52;22.30;92.80
39677;DHT22;27789;50.840;4.386;2023-02-14T11:35:21;22.60;92.60
39677;DHT22;27789;50.840;4.386;2023-02-14T11:37:53;22.70;92.30
39677;DHT22;27789;50.840;4.386;2023-02-14T11:40:26;23.00;92.40
39677;DHT22;27789;50.840;4.386;2023-02-14T11:42:53;23.30;91.90
39677;DHT22;27789;50.840;4.386;2023-02-14T11:48:07;23.50;91.50
39677;DHT22;27789;50.840;4.386;2023-02-14T11:50:34;23.70;91.40
39677;DHT22;27789;50.840;4.386;2023-02-14T11:53:00;23.90;91.30
39677;DHT22;27789;50.840;4.386;2023-02-14T11:55:30;24.20;91.10
39677;DHT22;27789;50.840;4.386;2023-02-14T11:58:01;24.10;91.30
39677;DHT22;27789;50.840;4.386;2023-02-14T12:00:27;24.10;90.90
39677;DHT22;27789;50.840;4.386;2023-02-14T12:02:57;24.40;91.00
39677;DHT22;27789;50.840;4.386;2023-02-14T12:05:27;24.60;90.60
39677;DHT22;27789;50.840;4.386;2023-02-14T12:07:54;24.70;90.30
39677;DHT22;27789;50.840;4.386;2023-02-14T12:10:22;25.00;90.10
39677;DHT22;27789;50.840;4.386;2023-02-14T12:23:23;25.70;89.50
39677;DHT22;27789;50.840;4.386;2023-02-14T12:28:30;25.90;89.60
39677;DHT22;27789;50.840;4.386;2023-02-14T12:31:07;26.10;89.40
39677;DHT22;27789;50.840;4.386;2023-02-14T12:33:33;25.80;89.00
39677;DHT22;27789;50.840;4.386;2023-02-14T12:45:58;25.70;88.00
39677;DHT22;27789;50.840;4.386;2023-02-14T13:04:50;25.80;87.10
39677;DHT22;27789;50.840;4.386;2023-02-14T13:17:23;26.90;86.30
39677;DHT22;27789;50.840;4.386;2023-02-14T13:22:30;27.30;85.40
39677;DHT22;27789;50.840;4.386;2023-02-14T13:25:03;27.20;85.30
39677;DHT22;27789;50.840;4.386;2023-02-14T13:27:33;27.30;85.40
39677;DHT22;27789;50.840;4.386;2023-02-14T13:30:13;27.40;84.70
39677;DHT22;27789;50.840;4.386;2023-02-14T13:32:41;27.30;84.90
39677;DHT22;27789;50.840;4.386;2023-02-14T13:35:13;27.40;84.40
39677;DHT22;27789;50.840;4.386;2023-02-14T13:37:39;27.30;84.60
39677;DHT22;27789;50.840;4.386;2023-02-14T13:40:08;26.90;85.00
39677;DHT22;27789;50.840;4.386;2023-02-14T13:47:54;26.00;85.70
39677;DHT22;27789;50.840;4.386;2023-02-14T13:50:26;26.00;85.80
39677;DHT22;27789;50.840;4.386;2023-02-14T13:52:52;26.00;86.90
39677;DHT22;27789;50.840;4.386;2023-02-14T13:55:20;25.50;86.70
39677;DHT22;27789;50.840;4.386;2023-02-14T14:00:34;24.40;89.10
39677;DHT22;27789;50.840;4.386;2023-02-14T14:03:00;24.30;88.40
39677;DHT22;27789;50.840;4.386;2023-02-14T14:13:08;23.00;90.70
39677;DHT22;27789;50.840;4.386;2023-02-14T14:15:33;22.70;90.70
39677;DHT22;27789;50.840;4.386;2023-02-14T14:20:37;21.50;91.50
39677;DHT22;27789;50.840;4.386;2023-02-14T14:23:22;20.90;91.90
39677;DHT22;27789;50.840;4.386;2023-02-14T14:25:49;20.60;92.50
39677;DHT22;27789;50.840;4.386;2023-02-14T14:28:21;20.20;92.80
39677;DHT22;27789;50.840;4.386;2023-02-14T14:30:48;19.80;93.10
39677;DHT22;27789;50.840;4.386;2023-02-14T14:33:15;19.60;93.30
39677;DHT22;27789;50.840;4.386;2023-02-14T14:38:18;19.10;93.50
39677;DHT22;27789;50.840;4.386;2023-02-14T14:40:44;18.90;93.70
39677;DHT22;27789;50.840;4.386;2023-02-14T14:43:21;18.90;93.80
39677;DHT22;27789;50.840;4.386;2023-02-14T14:45:48;18.80;94.00
39677;DHT22;27789;50.840;4.386;2023-02-14T14:48:17;18.60;94.30
39677;DHT22;27789;50.840;4.386;2023-02-14T14:50:45;18.40;94.10
39677;DHT22;27789;50.840;4.386;2023-02-14T14:53:45;18.20;94.30
39677;DHT22;27789;50.840;4.386;2023-02-14T14:56:04;18.10;94.60
39677;DHT22;27789;50.840;4.386;2023-02-14T15:01:29;17.90;94.10
39677;DHT22;27789;50.840;4.386;2023-02-14T15:03:51;17.80;94.30
39677;DHT22;27789;50.840;4.386;2023-02-14T15:06:20;17.70;94.90
39677;DHT22;27789;50.840;4.386;2023-02-14T15:08:46;17.60;95.10
39677;DHT22;27789;50.840;4.386;2023-02-14T15:11:20;17.60;95.30
39677;DHT22;27789;50.840;4.386;2023-02-14T15:13:57;17.70;95.50
39677;DHT22;27789;50.840;4.386;2023-02-14T15:18:49;17.70;95.60
39677;DHT22;27789;50.840;4.386;2023-02-14T15:21:15;17.50;95.60
39677;DHT22;27789;50.840;4.386;2023-02-14T15:23:41;17.60;95.50
39677;DHT22;27789;50.840;4.386;2023-02-14T15:28:52;18.40;95.50
39677;DHT22;27789;50.840;4.386;2023-02-14T15:31:18;18.40;95.60
39677;DHT22;27789;50.840;4.386;2023-02-14T15:33:44;18.10;95.80
39677;DHT22;27789;50.840;4.386;2023-02-14T15:36:13;18.10;95.80
39677;DHT22;27789;50.840;4.386;2023-02-14T15:38:40;18.10;96.00
39677;DHT22;27789;50.840;4.386;2023-02-14T15:41:06;17.90;96.20
39677;DHT22;27789;50.840;4.386;2023-02-14T15:43:36;17.70;96.30
39677;DHT22;27789;50.840;4.386;2023-02-14T15:48:38;17.20;97.10
39677;DHT22;27789;50.840;4.386;2023-02-14T15:51:23;16.90;97.40
39677;DHT22;27789;50.840;4.386;2023-02-14T15:59:00;16.40;97.80
39677;DHT22;27789;50.840;4.386;2023-02-14T16:01:26;16.20;98.00
39677;DHT22;27789;50.840;4.386;2023-02-14T16:03:53;16.10;98.30
39677;DHT22;27789;50.840;4.386;2023-02-14T16:08:58;15.80;98.50
39677;DHT22;27789;50.840;4.386;2023-02-14T16:11:30;15.70;98.60
39677;DHT22;27789;50.840;4.386;2023-02-14T16:13:56;15.60;99.00
39677;DHT22;27789;50.840;4.386;2023-02-14T16:16:22;15.50;98.90
39677;DHT22;27789;50.840;4.386;2023-02-14T16:18:49;15.50;99.00
39677;DHT22;27789;50.840;4.386;2023-02-14T16:21:21;15.40;99.10
39677;DHT22;27789;50.840;4.386;2023-02-14T16:26:26;15.30;99.30
39677;DHT22;27789;50.840;4.386;2023-02-14T16:28:51;15.20;99.30
39677;DHT22;27789;50.840;4.386;2023-02-14T16:31:17;15.20;99.50
39677;DHT22;27789;50.840;4.386;2023-02-14T16:33:43;15.00;99.50
39677;DHT22;27789;50.840;4.386;2023-02-14T16:36:17;15.00;99.70
39677;DHT22;27789;50.840;4.386;2023-02-14T16:38:44;15.00;99.70
39677;DHT22;27789;50.840;4.386;2023-02-14T16:41:17;14.90;99.80
39677;DHT22;27789;50.840;4.386;2023-02-14T16:43:43;14.80;99.90
39677;DHT22;27789;50.840;4.386;2023-02-14T16:46:10;14.80;99.90
39677;DHT22;27789;50.840;4.386;2023-02-14T16:48:35;14.80;99.90
39677;DHT22;27789;50.840;4.386;2023-02-14T16:51:01;14.70;99.90
39677;DHT22;27789;50.840;4.386;2023-02-14T16:53:26;14.70;99.90
39677;DHT22;27789;50.840;4.386;2023-02-14T16:55:53;14.60;99.90
39677;DHT22;27789;50.840;4.386;2023-02-14T16:58:20;14.50;99.90
39677;DHT22;27789;50.840;4.386;2023-02-14T17:00:46;14.50;99.90
39677;DHT22;27789;50.840;4.386;2023-02-14T17:03:11;14.40;99.90
39677;DHT22;27789;50.840;4.386;2023-02-14T17:05:37;14.30;99.90
39677;DHT22;27789;50.840;4.386;2023-02-14T17:08:03;14.20;99.90
39677;DHT22;27789;50.840;4.386;2023-02-14T17:10:30;14.20;99.90
39677;DHT22;27789;50.840;4.386;2023-02-14T17:12:56;14.10;99.90
39677;DHT22;27789;50.840;4.386;2023-02-14T17:15:23;14.00;99.90
39677;DHT22;27789;50.840;4.386;2023-02-14T17:17:49;13.90;99.90
39677;DHT22;27789;50.840;4.386;2023-02-14T17:20:16;13.90;99.90
39677;DHT22;27789;50.840;4.386;2023-02-14T17:22:44;13.90;99.90
39677;DHT22;27789;50.840;4.386;2023-02-14T17:25:09;13.70;99.90
39677;DHT22;27789;50.840;4.386;2023-02-14T17:27:35;13.70;99.90
39677;DHT22;27789;50.840;4.386;2023-02-14T17:30:02;13.60;99.90
39677;DHT22;27789;50.840;4.386;2023-02-14T17:32:28;13.60;99.90
39677;DHT22;27789;50.840;4.386;2023-02-14T17:34:53;13.50;99.90
39677;DHT22;27789;50.840;4.386;2023-02-14T17:37:19;13.50;99.90
39677;DHT22;27789;50.840;4.386;2023-02-14T17:39:44;13.40;99.90
39677;DHT22;27789;50.840;4.386;2023-02-14T17:42:10;13.50;99.90
39677;DHT22;27789;50.840;4.386;2023-02-14T17:44:35;13.40;99.90
39677;DHT22;27789;50.840;4.386;2023-02-14T17:47:02;13.40;99.90
39677;DHT22;27789;50.840;4.386;2023-02-14T17:49:27;13.30;99.90
39677;DHT22;27789;50.840;4.386;2023-02-14T17:51:53;13.30;99.90
39677;DHT22;27789;50.840;4.386;2023-02-14T17:54:20;13.20;99.90
39677;DHT22;27789;50.840;4.386;2023-02-14T17:56:46;13.20;99.90
39677;DHT22;27789;50.840;4.386;2023-02-14T17:59:11;13.20;99.90
39677;DHT22;27789;50.840;4.386;2023-02-14T18:01:37;13.10;99.90
39677;DHT22;27789;50.840;4.386;2023-02-14T18:04:02;13.10;99.90
39677;DHT22;27789;50.840;4.386;2023-02-14T18:06:30;13.00;99.90
39677;DHT22;27789;50.840;4.386;2023-02-14T18:08:56;13.00;99.90
39677;DHT22;27789;50.840;4.386;2023-02-14T18:11:22;12.90;99.90
39677;DHT22;27789;50.840;4.386;2023-02-14T18:13:48;12.90;99.90
39677;DHT22;27789;50.840;4.386;2023-02-14T18:16:15;12.90;99.90
39677;DHT22;27789;50.840;4.386;2023-02-14T18:18:41;12.90;99.90
39677;DHT22;27789;50.840;4.386;2023-02-14T18:21:07;12.90;99.90
39677;DHT22;27789;50.840;4.386;2023-02-14T18:23:33;12.80;99.90
39677;DHT22;27789;50.840;4.386;2023-02-14T18:26:00;12.80;99.90
39677;DHT22;27789;50.840;4.386;2023-02-14T18:28:26;12.80;99.90